createdAt,value
2022-11-27T00:00:25.546Z,5.98
2022-11-27T00:01:25.537Z,6.01
2022-11-27T00:02:25.609Z,6.01
2022-11-27T00:03:25.748Z,6.04
2022-11-27T00:04:25.533Z,6.06
2022-11-27T00:05:25.516Z,6.03
2022-11-27T00:06:25.507Z,6.06
2022-11-27T00:07:25.655Z,6.09
2022-11-27T00:08:25.446Z,6.10
2022-11-27T00:09:25.450Z,6.06
2022-11-27T00:10:25.597Z,6.04
2022-11-27T00:11:25.461Z,6.03
2022-11-27T00:12:25.448Z,6.07
2022-11-27T00:13:25.441Z,6.09
2022-11-27T00:14:25.410Z,6.09
2022-11-27T00:15:25.540Z,6.09
2022-11-27T00:16:25.527Z,6.09
2022-11-27T00:17:25.488Z,6.09
2022-11-27T00:18:25.359Z,6.09
2022-11-27T00:19:25.357Z,6.09
2022-11-27T00:20:29.586Z,6.07
2022-11-27T00:21:25.337Z,6.06
2022-11-27T00:22:25.447Z,6.04
2022-11-27T00:23:25.366Z,6.06
2022-11-27T00:24:25.403Z,6.03
2022-11-27T00:25:25.305Z,6.00
2022-11-27T00:26:25.316Z,6.00
2022-11-27T00:27:25.450Z,6.01
2022-11-27T00:28:25.290Z,6.01
2022-11-27T00:29:25.325Z,6.00
2022-11-27T00:30:25.290Z,5.98
2022-11-27T00:31:25.378Z,5.96
2022-11-27T00:32:25.474Z,5.93
2022-11-27T00:33:25.232Z,5.91
2022-11-27T00:34:25.209Z,5.88
2022-11-27T00:35:25.244Z,5.88
2022-11-27T00:36:25.201Z,5.88
2022-11-27T00:37:25.403Z,5.85
2022-11-27T00:38:25.180Z,5.85
2022-11-27T00:39:25.179Z,5.85
2022-11-27T00:40:25.290Z,5.85
2022-11-27T00:41:25.396Z,5.83
2022-11-27T00:42:25.175Z,5.82
2022-11-27T00:43:25.214Z,5.83
2022-11-27T00:44:25.178Z,5.85
2022-11-27T00:45:25.145Z,5.83
2022-11-27T00:46:28.454Z,5.83
2022-11-27T00:47:25.109Z,5.83
2022-11-27T00:48:25.366Z,5.85
2022-11-27T00:49:25.191Z,5.83
2022-11-27T00:50:25.210Z,5.82
2022-11-27T00:51:25.203Z,5.78
2022-11-27T00:52:25.076Z,5.77
2022-11-27T00:53:25.124Z,5.75
2022-11-27T00:54:25.089Z,5.74
2022-11-27T00:55:25.407Z,5.70
2022-11-27T00:56:25.215Z,5.68
2022-11-27T00:57:25.243Z,5.67
2022-11-27T00:58:25.019Z,5.68
2022-11-27T00:59:25.314Z,5.74
2022-11-27T01:00:25.163Z,5.78
2022-11-27T01:01:25.040Z,5.78
2022-11-27T01:02:25.063Z,5.77
2022-11-27T01:03:24.933Z,5.75
2022-11-27T01:04:25.121Z,5.77
2022-11-27T01:05:25.203Z,5.77
2022-11-27T01:06:24.974Z,5.74
2022-11-27T01:07:25.059Z,5.74
2022-11-27T01:08:25.216Z,5.75
2022-11-27T01:09:24.967Z,5.75
2022-11-27T01:10:24.998Z,5.75
2022-11-27T01:11:24.968Z,5.81
2022-11-27T01:12:24.959Z,5.81
2022-11-27T01:13:25.381Z,5.78
2022-11-27T01:14:24.932Z,5.83
2022-11-27T01:15:25.065Z,5.82
2022-11-27T01:16:24.913Z,5.85
2022-11-27T01:17:24.873Z,5.81
2022-11-27T01:18:24.776Z,5.83
2022-11-27T01:19:24.774Z,5.81
2022-11-27T01:20:24.969Z,5.81
2022-11-27T01:21:24.755Z,5.81
2022-11-27T01:22:24.735Z,5.82
2022-11-27T01:23:25.080Z,5.83
2022-11-27T01:24:25.172Z,5.81
2022-11-27T01:25:27.039Z,5.82
2022-11-27T01:26:24.926Z,5.81
2022-11-27T01:27:24.719Z,5.83
2022-11-27T01:28:24.702Z,5.85
2022-11-27T01:29:24.695Z,5.85
2022-11-27T01:30:24.667Z,5.85
2022-11-27T01:31:25.144Z,5.85
2022-11-27T01:32:24.674Z,5.83
2022-11-27T01:33:24.704Z,5.82
2022-11-27T01:34:24.676Z,5.82
2022-11-27T01:35:24.968Z,5.78
2022-11-27T01:36:24.807Z,5.75
2022-11-27T01:37:24.698Z,5.75
2022-11-27T01:38:24.578Z,5.73
2022-11-27T01:39:24.780Z,5.68
2022-11-27T01:40:24.698Z,5.70
2022-11-27T01:41:24.671Z,5.68
2022-11-27T01:42:24.748Z,5.67
2022-11-27T01:43:24.533Z,5.67
2022-11-27T01:44:24.540Z,5.67
2022-11-27T01:45:24.697Z,5.67
2022-11-27T01:46:24.727Z,5.68
2022-11-27T01:47:24.722Z,5.68
2022-11-27T01:48:24.567Z,5.68
2022-11-27T01:49:24.831Z,5.71
2022-11-27T01:50:24.489Z,5.73
2022-11-27T01:51:24.543Z,5.71
2022-11-27T01:52:24.604Z,5.71
2022-11-27T01:53:24.434Z,5.74
2022-11-27T01:54:24.645Z,5.74
2022-11-27T01:55:24.529Z,5.74
2022-11-27T01:56:24.465Z,5.74
2022-11-27T01:57:24.778Z,5.74
2022-11-27T01:58:24.556Z,5.73
2022-11-27T01:59:24.561Z,5.71
2022-11-27T02:00:24.542Z,5.71
2022-11-27T02:01:24.477Z,5.71
2022-11-27T02:02:24.393Z,5.68
2022-11-27T02:03:24.629Z,5.66
2022-11-27T02:04:24.324Z,5.64
2022-11-27T02:05:24.332Z,5.59
2022-11-27T02:06:24.352Z,5.56
2022-11-27T02:07:24.370Z,5.55
2022-11-27T02:08:24.289Z,5.55
2022-11-27T02:09:24.285Z,5.53
2022-11-27T02:10:24.314Z,5.55
2022-11-27T02:11:24.453Z,5.53
2022-11-27T02:12:24.305Z,5.52
2022-11-27T02:13:24.243Z,5.50
2022-11-27T02:14:24.232Z,5.50
2022-11-27T02:15:24.359Z,5.50
2022-11-27T02:16:24.234Z,5.48
2022-11-27T02:17:24.300Z,5.49
2022-11-27T02:18:24.224Z,5.48
2022-11-27T02:19:24.288Z,5.49
2022-11-27T02:20:24.172Z,5.48
2022-11-27T02:21:24.190Z,5.43
2022-11-27T02:22:24.342Z,5.43
2022-11-27T02:23:24.354Z,5.45
2022-11-27T02:24:24.191Z,5.43
2022-11-27T02:25:28.236Z,5.40
2022-11-27T02:26:24.117Z,5.37
2022-11-27T02:27:24.389Z,5.34
2022-11-27T02:28:24.082Z,5.35
2022-11-27T02:29:24.101Z,5.37
2022-11-27T02:30:24.458Z,5.32
2022-11-27T02:31:24.098Z,5.35
2022-11-27T02:32:24.364Z,5.35
2022-11-27T02:33:24.088Z,5.38
2022-11-27T02:34:24.030Z,5.38
2022-11-27T02:35:24.047Z,5.38
2022-11-27T02:36:24.040Z,5.37
2022-11-27T02:37:24.007Z,5.34
2022-11-27T02:38:24.033Z,5.32
2022-11-27T02:39:23.980Z,5.30
2022-11-27T02:40:24.088Z,5.25
2022-11-27T02:41:23.979Z,5.22
2022-11-27T02:42:24.306Z,5.19
2022-11-27T02:43:24.120Z,5.19
2022-11-27T02:44:24.091Z,5.16
2022-11-27T02:45:23.949Z,5.12
2022-11-27T02:46:24.176Z,5.07
2022-11-27T02:47:23.939Z,5.09
2022-11-27T02:48:23.935Z,5.05
2022-11-27T02:49:24.045Z,5.04
2022-11-27T02:50:24.084Z,5.04
2022-11-27T02:51:23.970Z,5.05
2022-11-27T02:52:23.876Z,5.05
2022-11-27T02:53:23.983Z,5.04
2022-11-27T02:54:23.914Z,5.02
2022-11-27T02:55:23.980Z,5.01
2022-11-27T02:56:23.908Z,4.99
2022-11-27T02:57:23.976Z,5.01
2022-11-27T02:58:23.800Z,5.02
2022-11-27T02:59:23.814Z,5.02
2022-11-27T03:00:23.890Z,5.02
2022-11-27T03:01:23.818Z,4.99
2022-11-27T03:02:23.827Z,4.99
2022-11-27T03:03:24.002Z,5.04
2022-11-27T03:04:23.749Z,5.02
2022-11-27T03:05:23.972Z,5.02
2022-11-27T03:06:23.798Z,5.05
2022-11-27T03:07:23.976Z,5.05
2022-11-27T03:08:23.686Z,5.05
2022-11-27T03:09:23.811Z,5.05
2022-11-27T03:10:23.743Z,5.10
2022-11-27T03:11:23.707Z,5.13
2022-11-27T03:12:23.683Z,5.13
2022-11-27T03:13:23.859Z,5.14
2022-11-27T03:14:23.645Z,5.13
2022-11-27T03:15:23.608Z,5.13
2022-11-27T03:16:23.649Z,5.14
2022-11-27T03:17:23.663Z,5.16
2022-11-27T03:18:23.607Z,5.17
2022-11-27T03:19:24.240Z,5.19
2022-11-27T03:20:23.740Z,5.20
2022-11-27T03:21:23.710Z,5.20
2022-11-27T03:22:23.559Z,5.22
2022-11-27T03:23:23.609Z,5.22
2022-11-27T03:24:23.619Z,5.22
2022-11-27T03:25:23.647Z,5.20
2022-11-27T03:26:23.649Z,5.22
2022-11-27T03:27:23.497Z,5.19
2022-11-27T03:28:23.491Z,5.20
2022-11-27T03:29:23.854Z,5.28
2022-11-27T03:30:23.473Z,5.28
2022-11-27T03:31:23.577Z,5.30
2022-11-27T03:32:23.453Z,5.27
2022-11-27T03:33:23.531Z,5.27
2022-11-27T03:34:23.408Z,5.27
2022-11-27T03:35:23.608Z,5.28
2022-11-27T03:36:23.399Z,5.27
2022-11-27T03:37:23.568Z,5.23
2022-11-27T03:38:23.619Z,5.20
2022-11-27T03:39:23.692Z,5.22
2022-11-27T03:40:23.535Z,5.22
2022-11-27T03:41:23.829Z,5.27
2022-11-27T03:42:23.524Z,5.32
2022-11-27T03:43:23.576Z,5.35
2022-11-27T03:44:23.323Z,5.38
2022-11-27T03:45:24.015Z,5.40
2022-11-27T03:46:23.378Z,5.40
2022-11-27T03:47:23.407Z,5.40
2022-11-27T03:48:23.325Z,5.41
2022-11-27T03:49:23.292Z,5.40
2022-11-27T03:50:23.276Z,5.41
2022-11-27T03:51:23.241Z,5.40
2022-11-27T03:52:23.242Z,5.41
2022-11-27T03:53:23.288Z,5.43
2022-11-27T03:54:23.402Z,5.43
2022-11-27T03:55:23.264Z,5.46
2022-11-27T03:56:23.339Z,5.48
2022-11-27T03:57:23.210Z,5.50
2022-11-27T03:58:23.205Z,5.49
2022-11-27T03:59:23.213Z,5.49
2022-11-27T04:00:23.370Z,5.50
2022-11-27T04:01:23.416Z,5.49
2022-11-27T04:02:23.150Z,5.49
2022-11-27T04:03:23.161Z,5.49
2022-11-27T04:04:23.232Z,5.49
2022-11-27T04:05:23.175Z,5.48
2022-11-27T04:06:23.216Z,5.50
2022-11-27T04:07:23.177Z,5.52
2022-11-27T04:08:23.320Z,5.50
2022-11-27T04:09:23.106Z,5.52
2022-11-27T04:10:23.511Z,5.52
2022-11-27T04:11:23.165Z,5.57
2022-11-27T04:12:23.081Z,5.63
2022-11-27T04:13:23.073Z,5.63
2022-11-27T04:14:23.024Z,5.59
2022-11-27T04:15:23.009Z,5.60
2022-11-27T04:16:23.177Z,5.59
2022-11-27T04:17:23.027Z,5.63
2022-11-27T04:18:23.034Z,5.66
2022-11-27T04:19:23.032Z,5.67
2022-11-27T04:20:22.991Z,5.70
2022-11-27T04:21:23.000Z,5.73
2022-11-27T04:22:22.944Z,5.73
2022-11-27T04:23:23.195Z,5.74
2022-11-27T04:24:22.947Z,5.75
2022-11-27T04:25:23.140Z,5.75
2022-11-27T04:26:22.923Z,5.75
2022-11-27T04:27:22.967Z,5.77
2022-11-27T04:28:22.906Z,5.75
2022-11-27T04:29:23.134Z,5.78
2022-11-27T04:30:22.907Z,5.74
2022-11-27T04:31:22.921Z,5.75
2022-11-27T04:32:23.415Z,5.75
2022-11-27T04:33:22.897Z,5.73
2022-11-27T04:34:22.862Z,5.73
2022-11-27T04:35:22.985Z,5.74
2022-11-27T04:36:22.973Z,5.82
2022-11-27T04:37:22.834Z,5.83
2022-11-27T04:38:22.888Z,5.83
2022-11-27T04:39:23.068Z,5.83
2022-11-27T04:40:22.779Z,5.83
2022-11-27T04:41:22.787Z,5.85
2022-11-27T04:42:22.796Z,5.88
2022-11-27T04:43:22.743Z,5.89
2022-11-27T04:44:22.753Z,5.92
2022-11-27T04:45:22.929Z,5.95
2022-11-27T04:46:22.799Z,5.96
2022-11-27T04:47:22.722Z,6.00
2022-11-27T04:48:22.692Z,6.01
2022-11-27T04:49:22.916Z,6.01
2022-11-27T04:50:22.880Z,6.01
2022-11-27T04:51:22.699Z,6.03
2022-11-27T04:52:22.654Z,6.06
2022-11-27T04:53:22.693Z,6.04
2022-11-27T04:54:22.676Z,6.04
2022-11-27T04:55:22.799Z,6.01
2022-11-27T04:56:22.784Z,6.01
2022-11-27T04:57:22.693Z,6.01
2022-11-27T04:58:22.705Z,6.01
2022-11-27T04:59:22.651Z,6.00
2022-11-27T05:00:22.560Z,6.03
2022-11-27T05:01:22.631Z,6.03
2022-11-27T05:02:22.612Z,6.09
2022-11-27T05:03:22.634Z,6.11
2022-11-27T05:04:22.527Z,6.13
2022-11-27T05:05:22.588Z,6.14
2022-11-27T05:06:22.509Z,6.14
2022-11-27T05:07:22.831Z,6.13
2022-11-27T05:08:22.733Z,6.13
2022-11-27T05:09:22.525Z,6.13
2022-11-27T05:10:22.465Z,6.14
2022-11-27T05:11:22.479Z,6.14
2022-11-27T05:12:22.576Z,6.16
2022-11-27T05:13:22.475Z,6.14
2022-11-27T05:14:22.490Z,6.16
2022-11-27T05:15:22.452Z,6.16
2022-11-27T05:16:22.577Z,6.16
2022-11-27T05:17:22.436Z,6.22
2022-11-27T05:18:22.538Z,6.28
2022-11-27T05:19:22.475Z,6.29
2022-11-27T05:20:22.403Z,6.35
2022-11-27T05:21:22.399Z,6.33
2022-11-27T05:22:22.409Z,6.33
2022-11-27T05:23:22.387Z,6.32
2022-11-27T05:24:22.558Z,6.30
2022-11-27T05:25:22.702Z,6.30
2022-11-27T05:26:22.345Z,6.29
2022-11-27T05:27:22.320Z,6.29
2022-11-27T05:28:26.684Z,6.28
2022-11-27T05:29:22.328Z,6.28
2022-11-27T05:30:22.293Z,6.29
2022-11-27T05:31:22.363Z,6.33
2022-11-27T05:32:22.288Z,6.35
2022-11-27T05:33:22.331Z,6.35
2022-11-27T05:34:22.281Z,6.36
2022-11-27T05:35:22.278Z,6.36
2022-11-27T05:36:22.252Z,6.36
2022-11-27T05:37:22.315Z,6.35
2022-11-27T05:38:22.247Z,6.36
2022-11-27T05:39:22.483Z,6.33
2022-11-27T05:40:22.383Z,6.33
2022-11-27T05:41:22.378Z,6.33
2022-11-27T05:42:22.362Z,6.35
2022-11-27T05:43:22.182Z,6.33
2022-11-27T05:44:22.266Z,6.33
2022-11-27T05:45:22.246Z,6.40
2022-11-27T05:46:22.221Z,6.38
2022-11-27T05:47:22.355Z,6.40
2022-11-27T05:48:22.203Z,6.40
2022-11-27T05:49:22.225Z,6.40
2022-11-27T05:50:22.112Z,6.40
2022-11-27T05:51:22.131Z,6.40
2022-11-27T05:52:22.284Z,6.40
2022-11-27T05:53:22.083Z,6.35
2022-11-27T05:54:22.101Z,6.33
2022-11-27T05:55:22.022Z,6.32
2022-11-27T05:56:22.142Z,6.30
2022-11-27T05:57:22.059Z,6.29
2022-11-27T05:58:22.156Z,6.30
2022-11-27T05:59:22.207Z,6.33
2022-11-27T06:00:22.011Z,6.33
2022-11-27T06:01:22.059Z,6.35
2022-11-27T06:02:27.905Z,6.35
2022-11-27T06:03:22.296Z,6.35
2022-11-27T06:04:22.066Z,6.38
2022-11-27T06:05:21.969Z,6.36
2022-11-27T06:06:21.933Z,6.35
2022-11-27T06:07:21.968Z,6.30
2022-11-27T06:08:21.940Z,6.28
2022-11-27T06:09:22.059Z,6.29
2022-11-27T06:10:22.115Z,6.30
2022-11-27T06:11:21.919Z,6.32
2022-11-27T06:12:21.889Z,6.35
2022-11-27T06:13:22.006Z,6.33
2022-11-27T06:14:22.054Z,6.35
2022-11-27T06:15:21.834Z,6.33
2022-11-27T06:16:21.972Z,6.32
2022-11-27T06:17:21.950Z,6.30
2022-11-27T06:18:21.975Z,6.28
2022-11-27T06:19:21.810Z,6.29
2022-11-27T06:20:22.133Z,6.28
2022-11-27T06:21:21.887Z,6.28
2022-11-27T06:22:21.796Z,6.29
2022-11-27T06:23:21.848Z,6.30
2022-11-27T06:24:21.740Z,6.35
2022-11-27T06:25:21.760Z,6.43
2022-11-27T06:26:21.911Z,6.44
2022-11-27T06:27:22.022Z,6.46
2022-11-27T06:28:21.736Z,6.47
2022-11-27T06:29:22.047Z,6.47
2022-11-27T06:30:21.694Z,6.46
2022-11-27T06:31:21.798Z,6.46
2022-11-27T06:32:21.669Z,6.46
2022-11-27T06:33:21.766Z,6.47
2022-11-27T06:34:21.669Z,6.48
2022-11-27T06:35:21.779Z,6.50
2022-11-27T06:36:21.656Z,6.50
2022-11-27T06:37:21.623Z,6.51
2022-11-27T06:38:21.739Z,6.51
2022-11-27T06:39:21.634Z,6.53
2022-11-27T06:40:21.604Z,6.53
2022-11-27T06:41:21.856Z,6.53
2022-11-27T06:42:21.620Z,6.54
2022-11-27T06:43:21.604Z,6.58
2022-11-27T06:44:21.581Z,6.56
2022-11-27T06:45:21.689Z,6.58
2022-11-27T06:46:22.037Z,6.59
2022-11-27T06:47:21.790Z,6.59
2022-11-27T06:48:21.733Z,6.59
2022-11-27T06:49:21.565Z,6.58
2022-11-27T06:50:21.500Z,6.59
2022-11-27T06:51:21.500Z,6.59
2022-11-27T06:52:21.503Z,6.59
2022-11-27T06:53:21.510Z,6.59
2022-11-27T06:54:21.477Z,6.61
2022-11-27T06:55:21.459Z,6.59
2022-11-27T06:56:21.600Z,6.59
2022-11-27T06:57:21.769Z,6.58
2022-11-27T06:58:23.514Z,6.58
2022-11-27T06:59:21.448Z,6.58
2022-11-27T07:00:21.759Z,6.58
2022-11-27T07:01:21.579Z,6.61
2022-11-27T07:02:21.444Z,6.61
2022-11-27T07:03:21.368Z,6.63
2022-11-27T07:04:21.360Z,6.63
2022-11-27T07:05:21.568Z,6.63
2022-11-27T07:06:21.331Z,6.62
2022-11-27T07:07:21.454Z,6.63
2022-11-27T07:08:21.543Z,6.63
2022-11-27T07:09:21.527Z,6.62
2022-11-27T07:10:21.375Z,6.62
2022-11-27T07:11:21.465Z,6.62
2022-11-27T07:12:21.751Z,6.62
2022-11-27T07:13:21.440Z,6.63
2022-11-27T07:14:21.446Z,6.66
2022-11-27T07:15:21.515Z,6.69
2022-11-27T07:16:21.302Z,6.69
2022-11-27T07:17:21.272Z,6.72
2022-11-27T07:18:21.209Z,6.76
2022-11-27T07:19:21.459Z,6.80
2022-11-27T07:20:21.224Z,6.80
2022-11-27T07:21:21.219Z,6.83
2022-11-27T07:22:21.196Z,6.86
2022-11-27T07:23:21.293Z,6.84
2022-11-27T07:24:21.376Z,6.87
2022-11-27T07:25:21.179Z,6.87
2022-11-27T07:26:21.093Z,6.89
2022-11-27T07:27:21.583Z,6.89
2022-11-27T07:28:21.655Z,6.87
2022-11-27T07:29:21.314Z,6.89
2022-11-27T07:30:21.286Z,6.90
2022-11-27T07:31:21.212Z,6.89
2022-11-27T07:32:21.120Z,6.90
2022-11-27T07:33:21.360Z,6.90
2022-11-27T07:34:21.939Z,6.90
2022-11-27T07:35:21.129Z,6.94
2022-11-27T07:36:21.264Z,6.91
2022-11-27T07:37:21.052Z,6.91
2022-11-27T07:38:21.352Z,6.95
2022-11-27T07:39:39.450Z,6.94
2022-11-27T07:40:21.060Z,6.94
2022-11-27T07:41:21.133Z,6.95
2022-11-27T07:42:37.395Z,6.95
2022-11-27T07:43:21.044Z,6.97
2022-11-27T07:44:21.278Z,6.99
2022-11-27T07:45:21.032Z,7.02
2022-11-27T07:46:21.152Z,7.05
2022-11-27T07:47:21.375Z,7.07
2022-11-27T07:48:21.696Z,7.08
2022-11-27T07:49:20.913Z,7.09
2022-11-27T07:50:20.902Z,7.12
2022-11-27T07:51:20.922Z,7.12
2022-11-27T07:52:21.093Z,7.12
2022-11-27T07:53:21.222Z,7.12
2022-11-27T07:54:21.004Z,7.12
2022-11-27T07:55:21.047Z,7.13
2022-11-27T07:56:20.891Z,7.13
2022-11-27T07:57:20.852Z,7.16
2022-11-27T07:58:20.831Z,7.15
2022-11-27T07:59:20.857Z,7.16
2022-11-27T08:00:20.824Z,7.16
2022-11-27T08:01:20.892Z,7.15
2022-11-27T08:02:20.790Z,7.16
2022-11-27T08:03:20.831Z,7.17
2022-11-27T08:04:21.189Z,7.19
2022-11-27T08:05:20.874Z,7.22
2022-11-27T08:06:20.765Z,7.23
2022-11-27T08:07:20.980Z,7.29
2022-11-27T08:08:20.748Z,7.31
2022-11-27T08:09:20.910Z,7.35
2022-11-27T08:10:20.801Z,7.38
2022-11-27T08:11:20.910Z,7.44
2022-11-27T08:12:21.066Z,7.45
2022-11-27T08:13:20.767Z,7.47
2022-11-27T08:14:20.958Z,7.50
2022-11-27T08:15:20.871Z,7.52
2022-11-27T08:16:20.993Z,7.55
2022-11-27T08:17:20.708Z,7.56
2022-11-27T08:18:20.722Z,7.62
2022-11-27T08:19:20.628Z,7.62
2022-11-27T08:20:20.701Z,7.67
2022-11-27T08:21:20.745Z,7.71
2022-11-27T08:22:20.794Z,7.75
2022-11-27T08:23:20.731Z,7.79
2022-11-27T08:24:20.684Z,7.85
2022-11-27T08:25:20.710Z,7.87
2022-11-27T08:26:20.598Z,7.90
2022-11-27T08:27:20.529Z,7.94
2022-11-27T08:28:20.716Z,7.99
2022-11-27T08:29:20.582Z,8.03
2022-11-27T08:30:20.557Z,8.11
2022-11-27T08:31:20.564Z,8.12
2022-11-27T08:32:20.497Z,8.15
2022-11-27T08:33:20.482Z,8.21
2022-11-27T08:34:20.448Z,8.26
2022-11-27T08:35:20.519Z,8.30
2022-11-27T08:36:20.450Z,8.32
2022-11-27T08:37:20.430Z,8.36
2022-11-27T08:38:20.427Z,8.39
2022-11-27T08:39:20.591Z,8.40
2022-11-27T08:40:20.436Z,8.42
2022-11-27T08:41:20.594Z,8.47
2022-11-27T08:42:20.405Z,8.51
2022-11-27T08:43:20.639Z,8.51
2022-11-27T08:44:20.370Z,8.53
2022-11-27T08:45:20.506Z,8.54
2022-11-27T08:46:20.448Z,8.55
2022-11-27T08:47:20.497Z,8.55
2022-11-27T08:48:20.635Z,8.55
2022-11-27T08:49:20.392Z,8.57
2022-11-27T08:50:20.455Z,8.54
2022-11-27T08:51:20.452Z,8.55
2022-11-27T08:52:20.290Z,8.57
2022-11-27T08:53:20.351Z,8.57
2022-11-27T08:54:20.251Z,8.58
2022-11-27T08:55:20.457Z,8.62
2022-11-27T08:56:20.360Z,8.62
2022-11-27T08:57:20.404Z,8.65
2022-11-27T08:58:20.398Z,8.65
2022-11-27T08:59:20.296Z,8.68
2022-11-27T09:00:24.946Z,8.69
2022-11-27T09:01:20.486Z,8.71
2022-11-27T09:02:20.391Z,8.75
2022-11-27T09:03:20.178Z,8.76
2022-11-27T09:04:20.453Z,8.73
2022-11-27T09:05:20.391Z,8.73
2022-11-27T09:06:20.308Z,8.75
2022-11-27T09:07:20.553Z,8.73
2022-11-27T09:08:20.204Z,8.73
2022-11-27T09:09:20.118Z,8.72
2022-11-27T09:10:20.450Z,8.69
2022-11-27T09:11:20.351Z,8.66
2022-11-27T09:12:20.463Z,8.66
2022-11-27T09:13:20.151Z,8.65
2022-11-27T09:14:20.156Z,8.63
2022-11-27T09:15:20.266Z,8.62
2022-11-27T09:16:20.269Z,8.62
2022-11-27T09:17:20.213Z,8.60
2022-11-27T09:18:20.237Z,8.57
2022-11-27T09:19:20.383Z,8.60
2022-11-27T09:20:20.034Z,8.63
2022-11-27T09:21:20.124Z,8.63
2022-11-27T09:22:20.049Z,8.66
2022-11-27T09:23:20.051Z,8.66
2022-11-27T09:24:19.987Z,8.68
2022-11-27T09:25:20.107Z,8.69
2022-11-27T09:26:20.034Z,8.72
2022-11-27T09:27:20.152Z,8.73
2022-11-27T09:28:19.980Z,8.76
2022-11-27T09:29:19.958Z,8.78
2022-11-27T09:30:19.937Z,8.83
2022-11-27T09:31:19.917Z,8.86
2022-11-27T09:32:20.022Z,8.91
2022-11-27T09:33:19.884Z,8.93
2022-11-27T09:34:19.998Z,8.99
2022-11-27T09:35:20.282Z,9.02
2022-11-27T09:36:19.951Z,9.01
2022-11-27T09:37:20.036Z,9.05
2022-11-27T09:38:20.037Z,9.06
2022-11-27T09:39:20.124Z,9.10
2022-11-27T09:40:19.811Z,9.13
2022-11-27T09:41:19.931Z,9.16
2022-11-27T09:42:19.851Z,9.15
2022-11-27T09:43:19.928Z,9.18
2022-11-27T09:44:19.929Z,9.20
2022-11-27T09:45:20.140Z,9.23
2022-11-27T09:46:20.444Z,9.27
2022-11-27T09:47:19.784Z,9.30
2022-11-27T09:48:19.732Z,9.28
2022-11-27T09:49:19.723Z,9.34
2022-11-27T09:50:19.736Z,9.38
2022-11-27T09:51:19.703Z,9.39
2022-11-27T09:52:19.822Z,9.40
2022-11-27T09:53:19.735Z,9.43
2022-11-27T09:54:19.764Z,9.45
2022-11-27T09:55:19.864Z,9.48
2022-11-27T09:56:19.732Z,9.50
2022-11-27T09:57:19.696Z,9.49
2022-11-27T09:58:19.776Z,9.50
2022-11-27T09:59:19.990Z,9.50
2022-11-27T10:00:19.734Z,9.50
2022-11-27T10:01:19.764Z,9.49
2022-11-27T10:02:19.911Z,9.50
2022-11-27T10:03:20.421Z,9.49
2022-11-27T10:04:19.569Z,9.52
2022-11-27T10:05:20.002Z,9.52
2022-11-27T10:06:19.558Z,9.52
2022-11-27T10:07:19.605Z,9.57
2022-11-27T10:08:19.624Z,9.58
2022-11-27T10:09:19.705Z,9.58
2022-11-27T10:10:19.515Z,9.57
2022-11-27T10:11:19.509Z,9.58
2022-11-27T10:12:19.610Z,9.60
2022-11-27T10:13:19.831Z,9.58
2022-11-27T10:14:19.467Z,9.60
2022-11-27T10:15:19.570Z,9.58
2022-11-27T10:16:19.523Z,9.60
2022-11-27T10:17:20.105Z,9.60
2022-11-27T10:18:19.485Z,9.63
2022-11-27T10:19:19.551Z,9.66
2022-11-27T10:20:19.586Z,9.67
2022-11-27T10:21:19.475Z,9.70
2022-11-27T10:22:21.303Z,9.70
2022-11-27T10:23:19.431Z,9.73
2022-11-27T10:24:19.420Z,9.73
2022-11-27T10:25:19.353Z,9.76
2022-11-27T10:26:19.511Z,9.78
2022-11-27T10:27:19.580Z,9.75
2022-11-27T10:28:19.391Z,9.75
2022-11-27T10:29:19.529Z,9.76
2022-11-27T10:30:19.751Z,9.75
2022-11-27T10:31:19.447Z,9.78
2022-11-27T10:32:52.926Z,9.78
2022-11-27T10:33:19.280Z,9.79
2022-11-27T10:34:19.493Z,9.78
2022-11-27T10:35:19.293Z,9.78
2022-11-27T10:36:19.279Z,9.78
2022-11-27T10:37:19.210Z,9.79
2022-11-27T10:38:19.387Z,9.79
2022-11-27T10:39:19.228Z,9.76
2022-11-27T10:40:19.425Z,9.75
2022-11-27T10:41:48.918Z,9.76
2022-11-27T10:42:19.389Z,9.78
2022-11-27T10:43:19.277Z,9.81
2022-11-27T10:44:19.268Z,9.81
2022-11-27T10:45:19.463Z,9.82
2022-11-27T10:46:19.323Z,9.81
2022-11-27T10:47:19.251Z,9.81
2022-11-27T10:48:19.109Z,9.81
2022-11-27T10:49:19.249Z,9.81
2022-11-27T10:50:19.335Z,9.79
2022-11-27T10:51:19.235Z,9.78
2022-11-27T10:52:19.088Z,9.76
2022-11-27T10:53:19.516Z,9.73
2022-11-27T10:54:19.070Z,9.71
2022-11-27T10:55:19.233Z,9.64
2022-11-27T10:56:19.190Z,9.63
2022-11-27T10:57:19.029Z,9.60
2022-11-27T10:58:19.274Z,9.58
2022-11-27T10:59:19.243Z,9.52
2022-11-27T11:00:19.330Z,9.50
2022-11-27T11:01:19.227Z,9.49
2022-11-27T11:02:19.103Z,9.46
2022-11-27T11:03:19.068Z,9.45
2022-11-27T11:04:36.904Z,9.40
2022-11-27T11:06:21.516Z,9.32
2022-11-27T11:07:19.072Z,9.30
2022-11-27T11:08:19.114Z,9.28
2022-11-27T11:09:19.001Z,9.25
2022-11-27T11:10:18.896Z,9.24
2022-11-27T11:11:18.943Z,9.21
2022-11-27T11:12:19.092Z,9.20
2022-11-27T11:13:19.036Z,9.15
2022-11-27T11:14:19.029Z,9.13
2022-11-27T11:15:18.849Z,9.12
2022-11-27T11:16:24.012Z,9.09
2022-11-27T11:17:19.086Z,9.09
2022-11-27T11:18:18.835Z,9.05
2022-11-27T11:19:19.011Z,9.04
2022-11-27T11:20:18.825Z,9.04
2022-11-27T11:21:18.800Z,9.02
2022-11-27T11:22:18.987Z,8.99
2022-11-27T11:23:18.800Z,9.01
2022-11-27T11:24:18.764Z,8.99
2022-11-27T11:25:18.829Z,8.99
2022-11-27T11:26:18.934Z,8.99
2022-11-27T11:27:18.730Z,8.96
2022-11-27T11:28:18.771Z,8.96
2022-11-27T11:29:19.883Z,8.96
2022-11-27T11:30:18.885Z,8.96
2022-11-27T11:31:18.719Z,8.94
2022-11-27T11:32:18.691Z,8.96
2022-11-27T11:33:18.704Z,8.96
2022-11-27T11:34:18.655Z,8.96
2022-11-27T11:35:18.725Z,8.99
2022-11-27T11:36:18.861Z,8.97
2022-11-27T11:37:18.947Z,8.97
2022-11-27T11:38:18.604Z,8.97
2022-11-27T11:39:18.773Z,8.97
2022-11-27T11:40:18.808Z,9.01
2022-11-27T11:41:18.718Z,9.02
2022-11-27T11:42:18.739Z,9.01
2022-11-27T11:43:18.801Z,9.02
2022-11-27T11:44:18.593Z,9.02
2022-11-27T11:45:18.594Z,9.02
2022-11-27T11:46:18.880Z,9.02
2022-11-27T11:47:18.949Z,9.01
2022-11-27T11:48:18.820Z,9.01
2022-11-27T11:49:18.795Z,8.97
2022-11-27T11:50:18.758Z,8.97
2022-11-27T11:51:18.466Z,8.97
2022-11-27T11:52:18.589Z,8.97
2022-11-27T11:53:18.629Z,8.96
2022-11-27T11:54:18.674Z,8.96
2022-11-27T11:55:18.454Z,8.96
2022-11-27T11:56:18.533Z,8.97
2022-11-27T11:57:18.426Z,8.99
2022-11-27T11:58:18.847Z,8.99
2022-11-27T11:59:18.437Z,8.99
2022-11-27T12:00:18.360Z,8.99
2022-11-27T12:01:26.761Z,9.02
2022-11-27T12:02:18.700Z,9.02
2022-11-27T12:03:18.543Z,9.05
2022-11-27T12:04:18.620Z,9.05
2022-11-27T12:05:18.726Z,9.09
2022-11-27T12:06:18.302Z,9.10
2022-11-27T12:07:18.377Z,9.12
2022-11-27T12:08:18.307Z,9.15
2022-11-27T12:09:18.475Z,9.15
2022-11-27T12:10:18.503Z,9.20
2022-11-27T12:11:18.521Z,9.23
2022-11-27T12:12:18.408Z,9.23
2022-11-27T12:13:18.407Z,9.25
2022-11-27T12:14:18.394Z,9.28
2022-11-27T12:15:18.238Z,9.28
2022-11-27T12:16:18.246Z,9.31
2022-11-27T12:17:18.247Z,9.30
2022-11-27T12:18:18.229Z,9.34
2022-11-27T12:19:18.181Z,9.39
2022-11-27T12:20:18.854Z,9.40
2022-11-27T12:21:18.251Z,9.43
2022-11-27T12:22:18.191Z,9.45
2022-11-27T12:23:18.220Z,9.46
2022-11-27T12:24:18.201Z,9.49
2022-11-27T12:25:18.143Z,9.48
2022-11-27T12:26:18.121Z,9.50
2022-11-27T12:27:18.107Z,9.52
2022-11-27T12:28:18.645Z,9.57
2022-11-27T12:29:18.111Z,9.58
2022-11-27T12:30:18.174Z,9.63
2022-11-27T12:31:18.148Z,9.64
2022-11-27T12:32:18.245Z,9.66
2022-11-27T12:33:18.061Z,9.67
2022-11-27T12:34:18.051Z,9.73
2022-11-27T12:35:18.266Z,9.75
2022-11-27T12:36:18.000Z,9.78
2022-11-27T12:37:18.028Z,9.82
2022-11-27T12:38:17.992Z,9.83
2022-11-27T12:39:18.009Z,9.85
2022-11-27T12:40:17.984Z,9.88
2022-11-27T12:41:18.018Z,9.89
2022-11-27T12:42:21.948Z,9.91
2022-11-27T12:43:18.139Z,9.91
2022-11-27T12:44:17.958Z,9.93
2022-11-27T12:45:18.117Z,9.94
2022-11-27T12:46:18.193Z,9.94
2022-11-27T12:47:17.973Z,9.96
2022-11-27T12:48:17.904Z,9.97
2022-11-27T12:49:18.107Z,9.97
2022-11-27T12:50:17.940Z,9.99
2022-11-27T12:51:17.964Z,9.99
2022-11-27T12:52:17.879Z,9.99
2022-11-27T12:53:24.425Z,9.97
2022-11-27T12:54:17.927Z,9.97
2022-11-27T12:55:17.915Z,10.00
2022-11-27T12:56:17.826Z,10.00
2022-11-27T12:57:17.960Z,9.99
2022-11-27T12:58:17.829Z,9.99
2022-11-27T12:59:17.946Z,9.96
2022-11-27T13:00:17.832Z,9.96
2022-11-27T13:01:20.370Z,9.94
2022-11-27T13:02:17.832Z,9.91
2022-11-27T13:03:17.880Z,9.88
2022-11-27T13:04:17.820Z,9.88
2022-11-27T13:05:18.271Z,9.86
2022-11-27T13:06:17.839Z,9.88
2022-11-27T13:07:17.967Z,9.85
2022-11-27T13:08:17.832Z,9.82
2022-11-27T13:09:17.782Z,9.82
2022-11-27T13:10:17.844Z,9.79
2022-11-27T13:11:18.040Z,9.81
2022-11-27T13:12:17.900Z,9.81
2022-11-27T13:13:17.845Z,9.79
2022-11-27T13:14:17.791Z,9.79
2022-11-27T13:15:17.795Z,9.78
2022-11-27T13:16:17.683Z,9.81
2022-11-27T13:17:17.640Z,9.78
2022-11-27T13:18:17.619Z,9.78
2022-11-27T13:19:17.742Z,9.78